Time;durP1;ratioP1;P1;durP2;ratioP2;P2;SDS_P1;SDS_P2;PMS_P1;PMS_P2;Temp;Humidity;BMP_temperature;BMP_pressure;BME280_temperature;BME280_humidity;BME280_pressure;Samples;Min_cycle;Max_cycle;Signal;HPM_P1;HPM_P2
2021/04/03 00:02:23;;;;;;;5.65;1.27;;;;;;;;;;4953796;28;20491;-56
2021/04/03 00:04:49;;;;;;;8.10;1.52;;;;;;;;;;4959621;28;20043;-55
2021/04/03 00:07:15;;;;;;;4.80;1.50;;;;;;;;;;4959296;28;20141;-57
2021/04/03 00:09:41;;;;;;;9.38;1.40;;;;;;;;;;4957880;28;20038;-56
2021/04/03 00:12:08;;;;;;;7.93;1.63;;;;;;;;;;4989827;28;20089;-56
2021/04/03 00:14:34;;;;;;;4.60;1.10;;;;;;;;;;4957876;28;20054;-54
2021/04/03 00:17:00;;;;;;;5.80;1.50;;;;;;;;;;4956819;28;20839;-57
2021/04/03 00:19:25;;;;;;;10.07;1.45;;;;;;;;;;4955042;28;20065;-56
2021/04/03 00:21:51;;;;;;;6.10;1.10;;;;;;;;;;4946741;28;20126;-57
2021/04/03 00:24:17;;;;;;;8.02;1.73;;;;;;;;;;4953044;28;20108;-57
2021/04/03 00:26:43;;;;;;;8.13;1.80;;;;;;;;;;4955186;28;20694;-57
2021/04/03 00:29:09;;;;;;;8.43;1.30;;;;;;;;;;4952363;28;20370;-58
2021/04/03 00:31:35;;;;;;;5.63;1.13;;;;;;;;;;4954348;28;20035;-58
2021/04/03 00:34:01;;;;;;;6.20;1.33;;;;;;;;;;4957336;28;20045;-56
2021/04/03 00:36:27;;;;;;;16.00;2.00;;;;;;;;;;4957304;28;20508;-56
2021/04/03 00:38:53;;;;;;;8.93;1.30;;;;;;;;;;4957393;28;20777;-57
2021/04/03 00:41:18;;;;;;;9.65;1.40;;;;;;;;;;4957002;28;20450;-57
2021/04/03 00:43:44;;;;;;;8.45;1.95;;;;;;;;;;4959088;28;20110;-56
2021/04/03 00:46:10;;;;;;;9.57;2.05;;;;;;;;;;4958320;28;20038;-56
2021/04/03 00:48:36;;;;;;;12.02;1.70;;;;;;;;;;4955427;28;20051;-55
2021/04/03 00:51:03;;;;;;;5.80;1.30;;;;;;;;;;4955504;28;20038;-56
2021/04/03 00:53:30;;;;;;;5.53;1.40;;;;;;;;;;4956913;28;20055;-57
2021/04/03 00:55:55;;;;;;;9.25;1.63;;;;;;;;;;4957442;28;20054;-55
2021/04/03 00:58:22;;;;;;;11.05;2.55;;;;;;;;;;4943717;28;20084;-56
2021/04/03 01:00:48;;;;;;;9.05;1.55;;;;;;;;;;4958838;28;20513;-56
2021/04/03 01:03:15;;;;;;;9.68;1.77;;;;;;;;;;4959358;28;20547;-57
2021/04/03 01:05:41;;;;;;;8.02;1.73;;;;;;;;;;4958564;28;20089;-56
2021/04/03 01:08:07;;;;;;;8.75;2.00;;;;;;;;;;4957610;28;20053;-55
2021/04/03 01:10:38;;;;;;;11.57;1.63;;;;;;;;;;4957718;28;20030;-55
2021/04/03 01:13:36;;;;;;;9.85;1.33;;;;;;;;;;4958818;28;20610;-54
2021/04/03 01:16:09;;;;;;;6.05;1.25;;;;;;;;;;4947946;28;20097;-56
2021/04/03 01:18:47;;;;;;;5.97;1.35;;;;;;;;;;4958575;28;20114;-57
2021/04/03 01:21:15;;;;;;;10.25;1.90;;;;;;;;;;4962856;28;20035;-56
2021/04/03 01:24:10;;;;;;;10.32;1.55;;;;;;;;;;4960573;28;20034;-57
2021/04/03 01:26:43;;;;;;;7.63;1.77;;;;;;;;;;4987967;28;20467;-52
2021/04/03 01:29:14;;;;;;;8.63;1.70;;;;;;;;;;4963660;28;20058;-56
2021/04/03 01:31:40;;;;;;;8.30;1.70;;;;;;;;;;4962647;28;20042;-57
2021/04/03 01:34:08;;;;;;;5.88;1.50;;;;;;;;;;4963888;28;20042;-57
2021/04/03 01:36:35;;;;;;;8.93;2.00;;;;;;;;;;4961315;28;20191;-54
2021/04/03 01:39:12;;;;;;;9.07;2.00;;;;;;;;;;4962334;28;20113;-57
2021/04/03 01:41:40;;;;;;;8.80;1.92;;;;;;;;;;4961909;28;20058;-57
2021/04/03 01:44:07;;;;;;;6.97;2.05;;;;;;;;;;4963881;28;20047;-56
2021/04/03 01:46:35;;;;;;;9.77;2.10;;;;;;;;;;4976679;28;20034;-58
2021/04/03 01:49:04;;;;;;;9.07;1.98;;;;;;;;;;4960671;28;20781;-56
2021/04/03 01:51:30;;;;;;;7.75;2.10;;;;;;;;;;4960441;28;20534;-58
2021/04/03 01:53:57;;;;;;;13.35;2.00;;;;;;;;;;4959057;28;20038;-56
2021/04/03 01:56:24;;;;;;;10.85;2.20;;;;;;;;;;4966312;28;20149;-54
2021/04/03 01:58:51;;;;;;;13.43;2.40;;;;;;;;;;4961794;28;20178;-53
2021/04/03 02:01:17;;;;;;;10.77;2.88;;;;;;;;;;4960837;28;20058;-56
2021/04/03 02:03:44;;;;;;;11.90;2.65;;;;;;;;;;4961656;28;20066;-57
2021/04/03 02:06:10;;;;;;;14.90;2.55;;;;;;;;;;4960965;28;20122;-56
2021/04/03 02:08:36;;;;;;;10.00;2.88;;;;;;;;;;4961149;28;21010;-55
2021/04/03 02:11:06;;;;;;;12.43;2.78;;;;;;;;;;4960531;28;20105;-55
2021/04/03 02:13:33;;;;;;;16.80;2.70;;;;;;;;;;4960304;28;20035;-52
2021/04/03 02:16:00;;;;;;;17.77;2.80;;;;;;;;;;4979004;28;20049;-56
2021/04/03 02:18:28;;;;;;;15.50;2.97;;;;;;;;;;4965848;28;20038;-56
2021/04/03 02:20:55;;;;;;;19.33;3.35;;;;;;;;;;4961791;28;20058;-54
2021/04/03 02:23:21;;;;;;;10.55;2.67;;;;;;;;;;4959009;28;20049;-56
2021/04/03 02:25:47;;;;;;;10.40;2.30;;;;;;;;;;4960157;28;20503;-59
2021/04/03 02:28:42;;;;;;;13.63;2.38;;;;;;;;;;4963512;28;20583;-57
2021/04/03 02:31:08;;;;;;;9.93;2.58;;;;;;;;;;4951059;28;20066;-59
2021/04/03 02:33:37;;;;;;;12.80;2.38;;;;;;;;;;4960391;28;20492;-59
2021/04/03 02:36:03;;;;;;;7.32;2.20;;;;;;;;;;4962749;28;20043;-58
2021/04/03 02:38:32;;;;;;;13.88;2.33;;;;;;;;;;4962116;28;20041;-58
2021/04/03 02:40:58;;;;;;;12.30;2.58;;;;;;;;;;4961763;28;20034;-58
2021/04/03 02:43:33;;;;;;;15.43;2.67;;;;;;;;;;4961766;28;20043;-57
2021/04/03 02:46:05;;;;;;;12.43;2.90;;;;;;;;;;4962378;28;20257;-57
2021/04/03 02:48:32;;;;;;;18.80;4.00;;;;;;;;;;4961061;28;20039;-59
2021/04/03 02:51:00;;;;;;;18.63;4.88;;;;;;;;;;4963719;28;20132;-58
2021/04/03 02:53:29;;;;;;;17.40;5.05;;;;;;;;;;4969805;28;20055;-54
2021/04/03 02:55:56;;;;;;;14.60;3.95;;;;;;;;;;4992017;28;20058;-58
2021/04/03 02:58:24;;;;;;;11.13;3.08;;;;;;;;;;4960325;28;20453;-57
2021/04/03 03:00:55;;;;;;;9.73;3.70;;;;;;;;;;4960833;28;20413;-56
2021/04/03 03:03:22;;;;;;;10.25;3.63;;;;;;;;;;4958658;28;20038;-58
2021/04/03 03:05:50;;;;;;;9.35;2.42;;;;;;;;;;4961935;28;20049;-57
2021/04/03 03:08:16;;;;;;;14.88;2.90;;;;;;;;;;4961404;28;20057;-58
2021/04/03 03:10:44;;;;;;;15.02;2.60;;;;;;;;;;4960556;28;20031;-57
2021/04/03 03:13:10;;;;;;;12.95;2.55;;;;;;;;;;4963421;28;20820;-58
2021/04/03 03:15:36;;;;;;;13.20;2.33;;;;;;;;;;4960100;28;20046;-59
2021/04/03 03:18:03;;;;;;;13.25;2.50;;;;;;;;;;4961246;28;20938;-59
2021/04/03 03:20:29;;;;;;;10.50;2.75;;;;;;;;;;4951045;28;20879;-59
2021/04/03 03:22:56;;;;;;;16.73;3.25;;;;;;;;;;4960836;28;20133;-58
2021/04/03 03:25:22;;;;;;;10.40;2.88;;;;;;;;;;4958570;28;20066;-58
2021/04/03 03:27:49;;;;;;;16.58;3.20;;;;;;;;;;4961656;28;20149;-59
2021/04/03 03:30:16;;;;;;;15.15;3.45;;;;;;;;;;4961740;28;20476;-57
2021/04/03 03:32:42;;;;;;;24.63;3.72;;;;;;;;;;4959545;28;20043;-55
2021/04/03 03:35:08;;;;;;;10.32;2.65;;;;;;;;;;4962908;28;20054;-58
2021/04/03 03:37:34;;;;;;;13.10;3.17;;;;;;;;;;4961181;28;20062;-58
2021/04/03 03:40:01;;;;;;;16.02;3.47;;;;;;;;;;4961592;28;20160;-57
2021/04/03 03:42:30;;;;;;;15.40;3.65;;;;;;;;;;4959875;28;20061;-61
2021/04/03 03:44:57;;;;;;;19.05;3.08;;;;;;;;;;4962425;28;20051;-58
2021/04/03 03:47:23;;;;;;;11.73;2.85;;;;;;;;;;4960960;28;20042;-59
2021/04/03 03:49:49;;;;;;;14.52;2.58;;;;;;;;;;4959837;28;20056;-58
2021/04/03 03:52:15;;;;;;;13.80;3.47;;;;;;;;;;4960462;28;20042;-57
2021/04/03 03:54:42;;;;;;;19.95;3.22;;;;;;;;;;4956500;28;20039;-55
2021/04/03 03:57:08;;;;;;;21.50;3.47;;;;;;;;;;4959531;28;20101;-58
2021/04/03 03:59:34;;;;;;;17.35;2.80;;;;;;;;;;4959386;28;20130;-58
2021/04/03 04:02:00;;;;;;;12.88;2.90;;;;;;;;;;4944764;28;20050;-58
2021/04/03 04:04:26;;;;;;;26.42;3.45;;;;;;;;;;4959450;28;20129;-57
2021/04/03 04:06:53;;;;;;;22.38;3.00;;;;;;;;;;4960660;28;21112;-56
2021/04/03 04:09:19;;;;;;;16.17;3.38;;;;;;;;;;4959527;28;20096;-58
2021/04/03 04:11:44;;;;;;;29.45;4.05;;;;;;;;;;4958842;28;20500;-58
2021/04/03 04:14:10;;;;;;;23.13;3.75;;;;;;;;;;4960636;28;20065;-57
2021/04/03 04:16:37;;;;;;;17.98;3.33;;;;;;;;;;4960403;28;20177;-58
2021/04/03 04:19:03;;;;;;;21.33;4.38;;;;;;;;;;4960610;28;20070;-57
2021/04/03 04:21:29;;;;;;;21.42;4.45;;;;;;;;;;4957319;28;20080;-58
2021/04/03 04:23:55;;;;;;;21.35;4.50;;;;;;;;;;4960408;28;20093;-56
2021/04/03 04:26:21;;;;;;;20.52;3.88;;;;;;;;;;4990128;28;20063;-59
2021/04/03 04:28:47;;;;;;;17.17;5.03;;;;;;;;;;4958379;28;20051;-58
2021/04/03 04:31:13;;;;;;;18.27;4.30;;;;;;;;;;4960432;28;20173;-58
2021/04/03 04:33:40;;;;;;;23.65;4.63;;;;;;;;;;4959774;28;20050;-57
2021/04/03 04:36:06;;;;;;;21.13;5.47;;;;;;;;;;4960281;28;20077;-54
2021/04/03 04:38:32;;;;;;;19.48;7.90;;;;;;;;;;4956772;28;20133;-58
2021/04/03 04:40:57;;;;;;;22.52;5.72;;;;;;;;;;4956910;28;20042;-57
2021/04/03 04:43:25;;;;;;;16.42;5.03;;;;;;;;;;4958332;28;20054;-58
2021/04/03 04:45:51;;;;;;;14.18;2.63;;;;;;;;;;4959798;28;20069;-58
2021/04/03 04:48:17;;;;;;;12.50;2.83;;;;;;;;;;4960193;28;20433;-59
2021/04/03 04:50:43;;;;;;;12.60;3.00;;;;;;;;;;4959961;28;20042;-55
2021/04/03 04:53:09;;;;;;;13.00;2.92;;;;;;;;;;4960038;28;20139;-57
2021/04/03 04:55:35;;;;;;;12.55;3.17;;;;;;;;;;4962622;28;20105;-57
2021/04/03 04:58:01;;;;;;;4.80;1.92;;;;;;;;;;4963349;28;20050;-58
2021/04/03 05:00:28;;;;;;;11.30;2.50;;;;;;;;;;4961342;28;20061;-57
2021/04/03 05:02:54;;;;;;;21.55;3.55;;;;;;;;;;4992187;28;20035;-55
2021/04/03 05:05:19;;;;;;;11.65;2.40;;;;;;;;;;4961545;28;20066;-57
2021/04/03 05:07:45;;;;;;;11.68;3.28;;;;;;;;;;4963255;28;20043;-56
2021/04/03 05:10:12;;;;;;;6.05;2.42;;;;;;;;;;4962261;28;20034;-57
2021/04/03 05:12:37;;;;;;;11.07;2.45;;;;;;;;;;4962556;28;20087;-56
2021/04/03 05:15:04;;;;;;;7.05;2.20;;;;;;;;;;4964308;28;20062;-54
2021/04/03 05:17:30;;;;;;;9.98;2.50;;;;;;;;;;4961796;28;20092;-58
2021/04/03 05:19:56;;;;;;;5.57;2.15;;;;;;;;;;4962812;28;20396;-57
2021/04/03 05:22:22;;;;;;;9.82;2.10;;;;;;;;;;4961930;28;20089;-58
2021/04/03 05:24:48;;;;;;;8.13;1.65;;;;;;;;;;4961390;28;20031;-56
2021/04/03 05:27:14;;;;;;;5.80;1.77;;;;;;;;;;4963993;28;20574;-55
2021/04/03 05:29:40;;;;;;;5.95;1.60;;;;;;;;;;4963074;28;20046;-57
2021/04/03 05:32:06;;;;;;;9.10;1.60;;;;;;;;;;4962337;28;20472;-58
2021/04/03 05:34:32;;;;;;;6.07;1.80;;;;;;;;;;4961958;28;21805;-59
2021/04/03 05:36:58;;;;;;;7.25;2.10;;;;;;;;;;4961817;28;20039;-53
2021/04/03 05:39:24;;;;;;;7.80;1.52;;;;;;;;;;4961627;28;20038;-57
2021/04/03 05:41:50;;;;;;;5.72;1.70;;;;;;;;;;4961549;28;20038;-56
2021/04/03 05:44:16;;;;;;;12.95;2.15;;;;;;;;;;4964429;28;20451;-58
2021/04/03 05:46:43;;;;;;;9.95;1.85;;;;;;;;;;4964061;28;20046;-56
2021/04/03 05:49:10;;;;;;;7.22;1.48;;;;;;;;;;4964668;28;20070;-53
2021/04/03 05:51:38;;;;;;;6.68;1.60;;;;;;;;;;4963945;28;20046;-56
2021/04/03 05:54:05;;;;;;;6.28;1.45;;;;;;;;;;4964982;28;20085;-52
2021/04/03 05:56:30;;;;;;;6.57;1.70;;;;;;;;;;4963172;28;20134;-56
2021/04/03 05:58:56;;;;;;;8.32;2.08;;;;;;;;;;4964241;28;20116;-53
2021/04/03 06:01:23;;;;;;;7.68;1.80;;;;;;;;;;4962315;28;20047;-57
2021/04/03 06:03:49;;;;;;;6.68;2.15;;;;;;;;;;4963357;28;20066;-54
2021/04/03 06:06:15;;;;;;;8.75;3.58;;;;;;;;;;4964721;28;20473;-57
2021/04/03 06:08:41;;;;;;;11.85;3.70;;;;;;;;;;4963200;28;20125;-55
2021/04/03 06:11:07;;;;;;;11.07;2.42;;;;;;;;;;4964696;28;20512;-56
2021/04/03 06:13:33;;;;;;;8.45;1.98;;;;;;;;;;4963221;28;20034;-57
2021/04/03 06:15:59;;;;;;;19.60;3.15;;;;;;;;;;4964199;28;20049;-56
2021/04/03 06:18:25;;;;;;;12.25;2.38;;;;;;;;;;4962717;28;20090;-57
2021/04/03 06:20:51;;;;;;;10.93;2.45;;;;;;;;;;4965084;28;20064;-57
2021/04/03 06:23:30;;;;;;;11.52;2.20;;;;;;;;;;4962384;28;20724;-54
2021/04/03 06:25:57;;;;;;;15.80;3.20;;;;;;;;;;4963228;28;20257;-56
2021/04/03 06:28:27;;;;;;;10.07;2.47;;;;;;;;;;4962878;28;20049;-57
2021/04/03 06:30:56;;;;;;;9.98;2.45;;;;;;;;;;4963543;28;20039;-61
2021/04/03 06:33:22;;;;;;;10.43;2.47;;;;;;;;;;4994379;28;20106;-58
2021/04/03 06:36:07;;;;;;;7.15;2.13;;;;;;;;;;4964461;28;20568;-59
2021/04/03 06:38:34;;;;;;;16.20;2.70;;;;;;;;;;4961608;28;20141;-60
2021/04/03 06:41:19;;;;;;;12.70;2.92;;;;;;;;;;4963682;28;20040;-60
2021/04/03 06:44:00;;;;;;;9.35;2.30;;;;;;;;;;4963450;28;20101;-60
2021/04/03 06:46:26;;;;;;;16.00;2.50;;;;;;;;;;4963525;28;20507;-59
2021/04/03 06:48:53;;;;;;;10.02;2.40;;;;;;;;;;4963566;28;20054;-60
2021/04/03 06:51:22;;;;;;;9.38;2.13;;;;;;;;;;4963876;28;20046;-58
2021/04/03 06:53:52;;;;;;;10.00;2.33;;;;;;;;;;4963721;28;20049;-60
2021/04/03 06:56:21;;;;;;;8.27;2.10;;;;;;;;;;4962716;28;20072;-59
2021/04/03 06:58:48;;;;;;;6.20;2.05;;;;;;;;;;4964897;28;20400;-58
2021/04/03 07:01:17;;;;;;;10.07;2.40;;;;;;;;;;4964055;28;20425;-58
2021/04/03 07:03:44;;;;;;;12.32;2.45;;;;;;;;;;4964484;28;20042;-59
2021/04/03 07:06:10;;;;;;;8.55;1.98;;;;;;;;;;4965417;28;20093;-58
2021/04/03 07:08:39;;;;;;;12.07;2.42;;;;;;;;;;4961012;28;20472;-60
2021/04/03 07:11:07;;;;;;;9.65;1.67;;;;;;;;;;4963656;28;20097;-57
2021/04/03 07:13:34;;;;;;;9.05;1.98;;;;;;;;;;4962551;28;20094;-57
2021/04/03 07:16:01;;;;;;;7.40;1.90;;;;;;;;;;4962867;28;20047;-57
2021/04/03 07:18:29;;;;;;;8.27;2.00;;;;;;;;;;4962708;28;20484;-59
2021/04/03 07:20:55;;;;;;;12.15;2.38;;;;;;;;;;4965455;28;20053;-58
2021/04/03 07:23:21;;;;;;;8.93;2.00;;;;;;;;;;4960523;28;20046;-58
2021/04/03 07:25:47;;;;;;;13.52;2.17;;;;;;;;;;4963018;28;20769;-58
2021/04/03 07:28:16;;;;;;;6.57;1.92;;;;;;;;;;4963451;28;20153;-58
2021/04/03 07:30:43;;;;;;;6.68;1.80;;;;;;;;;;4962293;28;20126;-59
2021/04/03 07:33:12;;;;;;;9.98;2.28;;;;;;;;;;4962418;28;20035;-58
2021/04/03 07:35:39;;;;;;;11.32;1.98;;;;;;;;;;4963188;28;20845;-59
2021/04/03 07:38:09;;;;;;;7.25;1.92;;;;;;;;;;4963333;28;20449;-58
2021/04/03 07:40:36;;;;;;;31.60;2.90;;;;;;;;;;4963964;28;20734;-59
2021/04/03 07:43:02;;;;;;;9.20;2.05;;;;;;;;;;4961819;28;20039;-57
2021/04/03 07:45:32;;;;;;;14.35;2.08;;;;;;;;;;4961661;28;20027;-58
2021/04/03 07:47:58;;;;;;;6.32;1.92;;;;;;;;;;4963407;28;20898;-59
2021/04/03 07:50:39;;;;;;;5.43;1.80;;;;;;;;;;4962617;28;20046;-57
2021/04/03 07:53:05;;;;;;;5.90;1.80;;;;;;;;;;4962718;28;20049;-58
2021/04/03 07:55:35;;;;;;;6.90;1.75;;;;;;;;;;4962207;28;20050;-57
2021/04/03 07:58:19;;;;;;;5.93;1.90;;;;;;;;;;4962457;28;20388;-58
2021/04/03 08:00:46;;;;;;;9.27;1.88;;;;;;;;;;4962040;28;20057;-55
2021/04/03 08:03:12;;;;;;;8.32;2.10;;;;;;;;;;4962930;28;20237;-56
2021/04/03 08:05:38;;;;;;;5.97;1.70;;;;;;;;;;4961697;28;20122;-58
2021/04/03 08:08:08;;;;;;;5.82;2.05;;;;;;;;;;4962582;28;20603;-57
2021/04/03 08:10:34;;;;;;;4.40;1.35;;;;;;;;;;4960890;28;20102;-58
2021/04/03 08:13:01;;;;;;;8.40;1.70;;;;;;;;;;4962550;28;20054;-59
2021/04/03 08:15:28;;;;;;;6.60;1.45;;;;;;;;;;4960052;28;20045;-58
2021/04/03 08:17:54;;;;;;;6.97;1.73;;;;;;;;;;4961637;28;20070;-57
2021/04/03 08:20:21;;;;;;;5.28;1.60;;;;;;;;;;4960603;28;20133;-59
2021/04/03 08:23:03;;;;;;;6.30;1.73;;;;;;;;;;4960401;28;20066;-58
2021/04/03 08:25:29;;;;;;;5.35;1.70;;;;;;;;;;4958376;28;20125;-58
2021/04/03 08:27:56;;;;;;;10.55;1.50;;;;;;;;;;4962762;28;20482;-58
2021/04/03 08:30:30;;;;;;;7.43;1.60;;;;;;;;;;4963646;28;20042;-58
2021/04/03 08:33:05;;;;;;;4.00;1.50;;;;;;;;;;4964729;28;20139;-57
2021/04/03 08:35:31;;;;;;;10.40;1.90;;;;;;;;;;4964873;28;20089;-57
2021/04/03 08:38:14;;;;;;;7.03;2.15;;;;;;;;;;4965075;28;20424;-58
2021/04/03 08:40:40;;;;;;;6.93;1.80;;;;;;;;;;4965694;28;20047;-58
2021/04/03 08:43:06;;;;;;;6.97;1.90;;;;;;;;;;4965557;28;20054;-57
2021/04/03 08:45:42;;;;;;;8.65;1.60;;;;;;;;;;4966493;28;20042;-59
2021/04/03 08:48:08;;;;;;;15.40;2.20;;;;;;;;;;4996853;28;20066;-58
2021/04/03 08:50:34;;;;;;;7.18;1.65;;;;;;;;;;4964867;28;20054;-59
2021/04/03 08:53:01;;;;;;;9.05;2.58;;;;;;;;;;4966359;28;20511;-59
2021/04/03 08:55:27;;;;;;;8.57;2.00;;;;;;;;;;4965326;28;20043;-56
2021/04/03 08:57:54;;;;;;;12.57;1.88;;;;;;;;;;4965847;28;20094;-56
2021/04/03 09:00:21;;;;;;;4.47;1.67;;;;;;;;;;4963759;28;20046;-57
2021/04/03 09:02:47;;;;;;;6.60;1.30;;;;;;;;;;4964248;28;20057;-57
2021/04/03 09:05:14;;;;;;;6.88;1.42;;;;;;;;;;4965202;28;20442;-58
2021/04/03 09:07:43;;;;;;;8.57;1.50;;;;;;;;;;4964789;28;20081;-57
2021/04/03 09:10:17;;;;;;;3.95;1.02;;;;;;;;;;4962969;28;20093;-57
2021/04/03 09:12:43;;;;;;;4.45;1.38;;;;;;;;;;4966612;28;20269;-56
2021/04/03 09:15:11;;;;;;;4.85;1.30;;;;;;;;;;4965217;28;20061;-57
2021/04/03 09:17:46;;;;;;;5.45;1.83;;;;;;;;;;4964804;28;20870;-57
2021/04/03 09:20:14;;;;;;;4.80;1.20;;;;;;;;;;4965241;28;20050;-57
2021/04/03 09:22:42;;;;;;;5.60;1.30;;;;;;;;;;4964742;28;20035;-58
2021/04/03 09:25:12;;;;;;;5.70;1.23;;;;;;;;;;4964823;28;20077;-56
2021/04/03 09:27:38;;;;;;;5.95;1.20;;;;;;;;;;4963490;28;20504;-56
2021/04/03 09:30:07;;;;;;;5.60;1.40;;;;;;;;;;4965154;28;20066;-57
2021/04/03 09:32:46;;;;;;;8.32;1.48;;;;;;;;;;4962804;28;20035;-57
2021/04/03 09:35:13;;;;;;;4.50;1.00;;;;;;;;;;4965138;28;20050;-58
2021/04/03 09:37:39;;;;;;;9.77;1.40;;;;;;;;;;4963338;28;20138;-58
2021/04/03 09:40:06;;;;;;;6.70;1.40;;;;;;;;;;4963987;28;20062;-59
2021/04/03 09:42:33;;;;;;;6.55;1.10;;;;;;;;;;4962778;28;20053;-56
2021/04/03 09:44:59;;;;;;;6.00;1.25;;;;;;;;;;4965933;28;20041;-59
2021/04/03 09:47:25;;;;;;;10.23;1.75;;;;;;;;;;4963500;28;20066;-56
2021/04/03 09:49:52;;;;;;;3.30;0.93;;;;;;;;;;4965739;28;20051;-60
2021/04/03 09:52:18;;;;;;;8.15;1.55;;;;;;;;;;4963987;28;20067;-57
2021/04/03 09:54:45;;;;;;;3.17;1.05;;;;;;;;;;4964882;28;20078;-57
2021/04/03 09:57:11;;;;;;;7.32;1.48;;;;;;;;;;4965380;28;20552;-58
2021/04/03 09:59:36;;;;;;;3.90;1.10;;;;;;;;;;4964199;28;20129;-57
2021/04/03 10:02:03;;;;;;;5.88;1.23;;;;;;;;;;4964148;28;20049;-59
2021/04/03 10:04:31;;;;;;;4.38;1.23;;;;;;;;;;4963717;28;20125;-57
2021/04/03 10:06:56;;;;;;;4.03;1.20;;;;;;;;;;4966689;28;20035;-60
2021/04/03 10:09:22;;;;;;;4.13;1.30;;;;;;;;;;4965060;28;20807;-58
2021/04/03 10:11:49;;;;;;;7.03;1.73;;;;;;;;;;4963761;28;20555;-58
2021/04/03 10:14:15;;;;;;;5.20;1.33;;;;;;;;;;4963412;28;20050;-58
2021/04/03 10:16:41;;;;;;;5.25;1.23;;;;;;;;;;4964873;28;20054;-57
2021/04/03 10:19:10;;;;;;;6.35;1.50;;;;;;;;;;4964108;28;20113;-56
2021/04/03 10:21:36;;;;;;;5.68;1.85;;;;;;;;;;4961580;28;20050;-57
2021/04/03 10:24:02;;;;;;;6.95;2.20;;;;;;;;;;4963689;28;20105;-59
2021/04/03 10:26:28;;;;;;;5.60;1.70;;;;;;;;;;4971152;28;20446;-57
2021/04/03 10:28:54;;;;;;;5.18;1.52;;;;;;;;;;4977018;28;20054;-58
2021/04/03 10:31:20;;;;;;;6.00;1.58;;;;;;;;;;4962891;28;20034;-59
2021/04/03 10:33:46;;;;;;;5.68;1.63;;;;;;;;;;4963451;28;20140;-58
2021/04/03 10:36:12;;;;;;;6.65;1.63;;;;;;;;;;4962947;28;20508;-58
2021/04/03 10:38:38;;;;;;;7.40;1.42;;;;;;;;;;4962193;28;20038;-57
2021/04/03 10:41:05;;;;;;;7.32;1.40;;;;;;;;;;4962365;28;20042;-58
2021/04/03 10:43:31;;;;;;;5.05;1.40;;;;;;;;;;4962271;28;20069;-58
2021/04/03 10:45:58;;;;;;;12.10;1.48;;;;;;;;;;4962800;28;20047;-57
2021/04/03 10:48:23;;;;;;;5.22;1.48;;;;;;;;;;4992571;28;20049;-58
2021/04/03 10:50:50;;;;;;;4.20;1.13;;;;;;;;;;4960849;28;20138;-56
2021/04/03 10:53:16;;;;;;;6.03;1.30;;;;;;;;;;4962663;28;20047;-58
2021/04/03 10:55:42;;;;;;;5.75;1.15;;;;;;;;;;4961179;28;20407;-58
2021/04/03 10:58:09;;;;;;;3.75;1.13;;;;;;;;;;4962152;28;20047;-57
2021/04/03 11:00:35;;;;;;;6.03;1.10;;;;;;;;;;4963133;28;20443;-58
2021/04/03 11:03:02;;;;;;;5.20;1.20;;;;;;;;;;4961197;28;20043;-57
2021/04/03 11:05:28;;;;;;;3.45;1.02;;;;;;;;;;4961031;28;20046;-57
2021/04/03 11:07:53;;;;;;;4.70;1.30;;;;;;;;;;4976313;28;20154;-57
2021/04/03 11:10:19;;;;;;;4.88;1.05;;;;;;;;;;4961157;28;22046;-58
2021/04/03 11:12:45;;;;;;;4.78;1.17;;;;;;;;;;4960531;28;20396;-54
2021/04/03 11:15:12;;;;;;;5.70;1.33;;;;;;;;;;4961868;28;20055;-56
2021/04/03 11:17:38;;;;;;;4.60;1.40;;;;;;;;;;4960415;28;20057;-57
2021/04/03 11:20:08;;;;;;;6.63;1.33;;;;;;;;;;4961608;28;20035;-56
2021/04/03 11:22:34;;;;;;;4.82;1.23;;;;;;;;;;4961505;28;20053;-56
2021/04/03 11:25:01;;;;;;;6.32;1.13;;;;;;;;;;4962592;28;20042;-56
2021/04/03 11:27:26;;;;;;;6.72;1.13;;;;;;;;;;4962489;28;20057;-57
2021/04/03 11:29:52;;;;;;;5.90;1.25;;;;;;;;;;4960627;28;20047;-52
2021/04/03 11:32:18;;;;;;;5.53;1.02;;;;;;;;;;4961893;28;20035;-56
2021/04/03 11:34:44;;;;;;;7.00;1.52;;;;;;;;;;4962444;28;20138;-56
2021/04/03 11:37:10;;;;;;;5.28;1.50;;;;;;;;;;4962494;28;20972;-56
2021/04/03 11:39:36;;;;;;;6.97;1.30;;;;;;;;;;4960696;28;20046;-55
2021/04/03 11:42:03;;;;;;;11.95;2.78;;;;;;;;;;4960752;28;20039;-54
2021/04/03 11:44:29;;;;;;;4.47;1.27;;;;;;;;;;4961994;28;20555;-55
2021/04/03 11:46:57;;;;;;;3.70;1.20;;;;;;;;;;4962576;28;20039;-58
2021/04/03 11:49:23;;;;;;;7.03;1.25;;;;;;;;;;4959602;28;20137;-57
2021/04/03 11:51:49;;;;;;;4.20;1.25;;;;;;;;;;4962347;28;20057;-57
2021/04/03 11:54:17;;;;;;;6.50;1.20;;;;;;;;;;4961949;28;20403;-54
2021/04/03 11:56:43;;;;;;;3.67;1.20;;;;;;;;;;4959755;28;20051;-57
2021/04/03 11:59:09;;;;;;;8.73;1.23;;;;;;;;;;4962423;28;20050;-58
2021/04/03 12:01:35;;;;;;;3.30;1.20;;;;;;;;;;4960794;28;20595;-57
2021/04/03 12:04:01;;;;;;;6.30;1.23;;;;;;;;;;4961237;28;20039;-58
2021/04/03 12:06:27;;;;;;;5.40;1.60;;;;;;;;;;4961535;28;20122;-58
2021/04/03 12:08:52;;;;;;;6.80;1.50;;;;;;;;;;4961087;28;20523;-57
2021/04/03 12:11:18;;;;;;;6.35;1.45;;;;;;;;;;4960539;28;20050;-56
2021/04/03 12:13:44;;;;;;;4.93;1.10;;;;;;;;;;4961481;28;20073;-55
2021/04/03 12:16:10;;;;;;;6.60;2.85;;;;;;;;;;4962624;28;20053;-57
2021/04/03 12:18:36;;;;;;;4.72;1.80;;;;;;;;;;4959681;28;20042;-54
2021/04/03 12:21:02;;;;;;;6.40;1.10;;;;;;;;;;4962157;28;20081;-53
2021/04/03 12:23:28;;;;;;;4.50;1.40;;;;;;;;;;4961365;28;20514;-58
2021/04/03 12:25:54;;;;;;;6.90;1.20;;;;;;;;;;4962153;28;20046;-57
2021/04/03 12:28:20;;;;;;;4.43;1.20;;;;;;;;;;4971159;28;20046;-55
2021/04/03 12:30:46;;;;;;;3.88;1.20;;;;;;;;;;4961330;28;20503;-56
2021/04/03 12:33:11;;;;;;;5.40;1.02;;;;;;;;;;4993837;28;20392;-55
2021/04/03 12:35:37;;;;;;;4.25;1.30;;;;;;;;;;4963698;28;20063;-57
2021/04/03 12:38:03;;;;;;;3.80;1.10;;;;;;;;;;4962521;28;20142;-56
2021/04/03 12:40:29;;;;;;;5.70;1.40;;;;;;;;;;4960847;28;20081;-57
2021/04/03 12:42:55;;;;;;;4.03;1.05;;;;;;;;;;4962561;28;20042;-57
2021/04/03 12:45:21;;;;;;;5.00;1.00;;;;;;;;;;4964305;28;20085;-54
2021/04/03 12:47:47;;;;;;;4.72;1.08;;;;;;;;;;4959902;28;20038;-56
2021/04/03 12:50:13;;;;;;;8.60;2.08;;;;;;;;;;4962380;28;20786;-57
2021/04/03 12:52:39;;;;;;;4.55;1.20;;;;;;;;;;4984286;28;20043;-57
2021/04/03 12:55:05;;;;;;;4.75;1.02;;;;;;;;;;4960934;28;20042;-53
2021/04/03 12:57:35;;;;;;;6.80;1.45;;;;;;;;;;4960224;28;20051;-55
2021/04/03 13:00:01;;;;;;;4.53;1.33;;;;;;;;;;4993035;28;20035;-55
2021/04/03 13:02:27;;;;;;;4.43;1.10;;;;;;;;;;4964511;28;20890;-57
2021/04/03 13:04:52;;;;;;;4.95;1.10;;;;;;;;;;4961898;28;20039;-55
2021/04/03 13:07:18;;;;;;;6.25;1.35;;;;;;;;;;4959796;28;20090;-54
2021/04/03 13:09:44;;;;;;;6.20;1.00;;;;;;;;;;4962582;28;20120;-56
2021/04/03 13:12:10;;;;;;;7.22;1.17;;;;;;;;;;4963075;28;20038;-55
2021/04/03 13:14:39;;;;;;;6.30;1.10;;;;;;;;;;4963671;28;20097;-56
2021/04/03 13:17:05;;;;;;;7.60;1.13;;;;;;;;;;4964153;28;20042;-57
2021/04/03 13:19:31;;;;;;;4.45;1.25;;;;;;;;;;4962480;28;20034;-57
2021/04/03 13:21:57;;;;;;;4.55;1.20;;;;;;;;;;4964710;28;20393;-57
2021/04/03 13:24:23;;;;;;;5.65;1.00;;;;;;;;;;4964891;28;20038;-54
2021/04/03 13:26:49;;;;;;;3.83;1.02;;;;;;;;;;4964994;28;20496;-58
2021/04/03 13:29:15;;;;;;;5.38;1.08;;;;;;;;;;4963475;28;20595;-56
2021/04/03 13:31:44;;;;;;;8.63;1.23;;;;;;;;;;4964260;28;20146;-56
2021/04/03 13:34:09;;;;;;;5.88;1.23;;;;;;;;;;4963654;28;20173;-56
2021/04/03 13:36:35;;;;;;;4.85;1.20;;;;;;;;;;4987677;28;20533;-58
2021/04/03 13:39:02;;;;;;;6.68;1.10;;;;;;;;;;4962543;28;20039;-57
2021/04/03 13:41:28;;;;;;;6.45;1.30;;;;;;;;;;4962054;28;20059;-57
2021/04/03 13:43:54;;;;;;;5.68;1.40;;;;;;;;;;4964354;28;20106;-57
2021/04/03 13:46:22;;;;;;;4.72;1.13;;;;;;;;;;4964877;28;20527;-55
2021/04/03 13:48:48;;;;;;;3.58;1.00;;;;;;;;;;4963378;28;20056;-55
2021/04/03 13:51:14;;;;;;;7.78;1.30;;;;;;;;;;4965169;28;20069;-57
2021/04/03 13:53:40;;;;;;;6.28;1.42;;;;;;;;;;4964294;28;20485;-55
2021/04/03 13:56:06;;;;;;;3.85;1.15;;;;;;;;;;4964949;28;20058;-58
2021/04/03 13:58:32;;;;;;;8.90;2.90;;;;;;;;;;4964084;28;20070;-59
2021/04/03 14:00:58;;;;;;;3.83;1.02;;;;;;;;;;4965740;28;20519;-58
2021/04/03 14:03:24;;;;;;;5.97;0.90;;;;;;;;;;4964163;28;20550;-58
2021/04/03 14:05:50;;;;;;;2.78;0.88;;;;;;;;;;4965436;28;20110;-53
2021/04/03 14:08:15;;;;;;;5.82;0.95;;;;;;;;;;4963070;28;20061;-57
2021/04/03 14:10:41;;;;;;;5.57;1.17;;;;;;;;;;4961995;28;20775;-56
2021/04/03 14:13:07;;;;;;;7.10;1.08;;;;;;;;;;4963621;28;20396;-55
2021/04/03 14:15:33;;;;;;;4.35;1.10;;;;;;;;;;4961864;28;20392;-56
2021/04/03 14:17:59;;;;;;;4.25;1.20;;;;;;;;;;4963772;28;20554;-55
2021/04/03 14:20:25;;;;;;;6.35;1.00;;;;;;;;;;4963711;28;20043;-61
2021/04/03 14:22:51;;;;;;;6.93;1.20;;;;;;;;;;4963528;28;20054;-56
2021/04/03 14:25:17;;;;;;;4.07;0.90;;;;;;;;;;4960064;28;20066;-56
2021/04/03 14:27:43;;;;;;;3.42;1.15;;;;;;;;;;4959385;28;20054;-54
2021/04/03 14:30:09;;;;;;;4.68;1.17;;;;;;;;;;4963120;28;20935;-55
2021/04/03 14:32:35;;;;;;;6.15;1.00;;;;;;;;;;4961611;28;20042;-54
2021/04/03 14:35:01;;;;;;;7.47;1.33;;;;;;;;;;4962282;28;20058;-53
2021/04/03 14:37:27;;;;;;;4.78;1.40;;;;;;;;;;4960470;28;20432;-56
2021/04/03 14:39:53;;;;;;;4.95;1.20;;;;;;;;;;4962260;28;20039;-57